CheckWX is a tool to help pilots better visualize weather data.  It is not intended as a substitute for an official pre-flight weather briefing.

11:34:24 UTC

KFTK METAR
Godman AAF Airport
Fort Knox, Kentucky, USA
Current

38 mins ago

KFTK 241056Z AUTO 22005KT 10SM SCT080 21/21 A3013 RMK AO2 SLP199 T02050205
Observed
May-24 @ 10:56 UTC
Wind
  • 220° at 5 KTS
Visibility
10 SM
Flight Rules
VFR
Cloud Levels
  • Scattered at 8,000' AGL
Temperature
21°C / 70°F
Dewpoint
21°C / 70°F
Humidity
100%
Altimeter
30.13" Hg
Pressure
1020.32 hPa
Previous

53 mins ago

KFTK 241041Z AUTO 25003KT 10SM CLR 21/21 A3013 RMK AO2 SLP199
Observed
May-24 @ 10:41 UTC
Wind
  • 250° at 3 KTS
Visibility
10 SM
Flight Rules
VFR
Cloud Levels
  • Clear skies
Temperature
21°C / 70°F
Dewpoint
21°C / 70°F
Humidity
100%
Altimeter
30.13" Hg
Pressure
1020.32 hPa
Previous

2 hours ago

KFTK 240956Z AUTO 00000KT 10SM BKN080 21/21 A3011 RMK AO2 SLP192 T02070207
Observed
May-24 @ 09:56 UTC
Visibility
10 SM
Flight Rules
VFR
Cloud Levels
  • Broken at 8,000' AGL
Temperature
21°C / 70°F
Dewpoint
21°C / 70°F
Humidity
100%
Altimeter
30.11" Hg
Pressure
1019.62 hPa